Terminal Aerodrome Forecast
Issued by NWS Tulsa, OK

Home | Current Version | Previous Version | Text Only | Print | Product List | Glossary On
Versions: 1 2 3 4 5 6 7 8 9 10 11 12 13
000
FTUS44 KTSA 281125
TAFFSM
TAF
KFSM 281125Z 2812/2912 29006KT P6SM OVC250
     FM281500 30008KT P6SM OVC012
     FM281800 32009KT P6SM OVC025
     FM282100 33011KT P6SM BKN100
     FM290000 33011KT P6SM SKC
     FM290600 36003KT P6SM SKC=

USA.gov is the U.S. government's official web portal to all federal, state and local government web resources and services.